METAR stanice u blizini

 

LYBE - Beograd / Surčin, Srbija
Ažurirano: 27/09/2022 14:00
Partly Cloudy
Partly Cloudy
 Pravac vetra SZ
Vetar: SZ 15 km/h
Temperatura: 21°C
Tačka rose: 17°C
Vlažnost: 78%
Pritisak: 1000 hPa
Oblaci: Partly Cloudy
Vidljivost: 10 km
Cloud details: Few Clouds 823 m
Partly Cloudy 914 m
2022/09/27 12:00 LYBE 271200Z 31008KT 260V330 9999 FEW027TCU SCT030 21/17 Q1000 RESHRA TEMPO 25020G35KT 2500 +TSRA SCT027CB BKN030
LYBT - Beograd / Batajnica, Srbija
Ažurirano: 27/09/2022 14:00
Few Clouds
Few Clouds
 Pravac vetra Z
Vetar: Z 9 km/h
Temperatura: 21°C
Tačka rose: 20°C
Vlažnost: 94%
Pritisak: 1000 hPa
Oblaci: Few Clouds
Vidljivost: 10 km
Cloud details: Few Clouds 823 m
Few Clouds 914 m
2022/09/27 12:00 LYBT 271200Z 26005KT 9999 FEW027TCU FEW030 21/20 Q1000 RETS TEMPO 24017G30KT 3000 TSRA SCT027CB BKN033
LYVR - Vršac, Srbija
Ažurirano: 27/09/2022 13:30
Partly Cloudy
Partly Cloudy
 Pravac vetra J
Vetar: J 19 km/h
Temperatura: 22°C
Tačka rose: 16°C
Vlažnost: 69%
Pritisak: 1001 hPa
Oblaci: Partly Cloudy
Vidljivost: 10 km
Cloud details: Partly Cloudy 792 m
2022/09/27 11:30 LYVR 271130Z 17010KT 150V210 9999 SCT026 22/16 Q1001 NOSIG
 
LYKV - Lađevci, Srbija
Ažurirano: 27/09/2022 14:00
Light thunderstorm, Padavine, Pretežno oblačno
Light thunderstorm, Padavine, Pretežno oblačno
 Pravac vetra ZSZ
Vetar: ZSZ 2 km/h
Temperatura: 19°C
Tačka rose: 19°C
Vlažnost: 100%
Pritisak: 1000 hPa
Pregled: Light thunderstorm, Padavine
Oblaci: Mostly Cloudy
Vidljivost: 7 km
Cloud details: Partly Cloudy 823 m
Mostly Cloudy 914 m
2022/09/27 12:00 LYKV 271200Z 30001KT 7000 -TSRA SCT027CB BKN030 19/19 Q1000 TEMPO 29016KT 4000 TSRA SCT027CB
LYNI - Niš, Srbija
Ažurirano: 27/09/2022 14:00
Partly Cloudy
Partly Cloudy
 Pravac vetra J
Vetar: J 11 km/h
Temperatura: 22°C
Tačka rose: 17°C
Vlažnost: 73%
Pritisak: 1001 hPa
Oblaci: Partly Cloudy
Vidljivost: 10 km
Cloud details: Partly Cloudy 914 m
2022/09/27 12:00 LYNI 271200Z 17006KT 090V230 9999 SCT030 22/17 Q1001 NOSIG
BKPR - Priština, Srbija
Ažurirano: 27/09/2022 14:00
Partly Cloudy
Partly Cloudy
 Pravac vetra JJZ
Vetar: JJZ 33 km/h
Temperatura: 22°C
Tačka rose: 12°C
Vlažnost: 53%
Pritisak: 1003 hPa
Oblaci: Partly Cloudy
Vidljivost: 10 km
Cloud details: Partly Cloudy 1219 m
2022/09/27 12:00 BKPR 271200Z 21018KT 9999 SCT040 22/12 Q1003 NOSIG
 
LHPP - Pecs / Pogany, Hungary
Ažurirano: 27/09/2022 13:45
Partly Cloudy
Partly Cloudy
 Pravac vetra JJZ
Vetar: JJZ 11 km/h
Temperatura: 19°C
Tačka rose: 14°C
Vlažnost: 73%
Pritisak: 1000 hPa
Oblaci: Partly Cloudy
Vidljivost: 10 km
Cloud details: Partly Cloudy 640 m
2022/09/27 11:45 LHPP 271145Z AUTO 20006KT 130V240 9999 SCT021 19/14 Q1000
LHUD - Szeged, Hungary
Ažurirano: 04/07/2019 01:45
NOT Current
Vedro
Vedro
 Pravac vetra S
Vetar: S 7 km/h
Temperatura: 18°C
Tačka rose: 13°C
Vlažnost: 73%
Pritisak: 1019 hPa
Pregled: Vedro
Vidljivost: greater than 10 km
2019/07/03 23:45 LHUD 032345Z 35004KT CAVOK 18/13 Q1019
LRTR - Timisoara, Romania
Ažurirano: 27/09/2022 14:00
Few Clouds
Few Clouds
 Pravac vetra ISI
Vetar: ISI 6 km/h
Temperatura: 19°C
Tačka rose: 17°C
Vlažnost: 88%
Pritisak: 1000 hPa
Oblaci: Few Clouds
Vidljivost: 10 km
Cloud details: Few Clouds 457 m
Few Clouds 792 m
2022/09/27 12:00 LRTR 271200Z 06003KT 330V090 9999 FEW015 FEW026CB 19/17 Q1000
 
LRCV - Craiova, Romania
Ažurirano: 27/09/2022 14:00
Rain showers, Pretežno oblačno
Rain showers, Pretežno oblačno
 Pravac vetra JZ
Vetar: JZ 7 km/h
Temperatura: 18°C
Tačka rose: 15°C
Vlažnost: 83%
Pritisak: 1002 hPa
Pregled: Rain Showers
Oblaci: Mostly Cloudy
Vidljivost: 5 km
Cloud details: Few Clouds 488 m
Partly Cloudy 762 m
Mostly Cloudy 914 m
2022/09/27 12:00 LRCV 271200Z 22004KT 140V270 5000 SHRA FEW016 SCT025 BKN030CB 18/15 Q1002
LBSF - Sofia, Bulgaria
Ažurirano: 27/09/2022 14:00
Mostly Cloudy
Mostly Cloudy
 Pravac vetra SI
Vetar: SI 7 km/h
Temperatura: 20°C
Tačka rose: 15°C
Vlažnost: 73%
Pritisak: 1003 hPa
Oblaci: Mostly Cloudy
Vidljivost: 10 km
Cloud details: Few Clouds 579 m
Mostly Cloudy 1494 m
2022/09/27 12:00 LBSF 271200Z 05004KT 330V110 9999 FEW019 BKN049 20/15 Q1003 NOSIG
LWSK - Skoplje, Makedonija
Ažurirano: 27/09/2022 14:00
Partly Cloudy
Partly Cloudy
 Pravac vetra ZSZ
Vetar: ZSZ 7 km/h
Temperatura: 23°C
Tačka rose: 18°C
Vlažnost: 74%
Pritisak: 1002 hPa
Oblaci: Partly Cloudy
Vidljivost: 10 km
Cloud details: Partly Cloudy 1219 m
2022/09/27 12:00 LWSK 271200Z 29004KT 9999 SCT040 23/18 Q1002 NOSIG
 
LYPG - Podgorica, Crna Gora
Ažurirano: 27/09/2022 14:00
Partly Cloudy
Partly Cloudy
 Pravac vetra JJZ
Vetar: JJZ 13 km/h
Temperatura: 23°C
Tačka rose: 14°C
Vlažnost: 57%
Pritisak: 1004 hPa
Oblaci: Partly Cloudy
Vidljivost: 10 km
Cloud details: Partly Cloudy 914 m
Partly Cloudy 2438 m
2022/09/27 12:00 LYPG 271200Z 21007KT 9999 SCT030 SCT080 23/14 Q1004 NOSIG
LQSA - Sarajevo, Bosna i Hercegovina
Ažurirano: 27/09/2022 14:00
Mostly Cloudy
Mostly Cloudy
 Pravac vetra JI
Vetar: JI 7 km/h
Temperatura: 17°C
Tačka rose: 14°C
Vlažnost: 83%
Pritisak: 1003 hPa
Oblaci: Mostly Cloudy
Vidljivost: 10 km
Cloud details: Few Clouds 610 m
Mostly Cloudy 1524 m
2022/09/27 12:00 LQSA 271200Z 13004KT 080V170 9999 FEW020 BKN050 17/14 Q1003 NOSIG
LDOS - Osijek, Hrvatksa
Ažurirano: 27/09/2022 14:00
Few Clouds
Few Clouds
 Pravac vetra J
Vetar: J 17 km/h
Temperatura: 19°C
Tačka rose: 15°C
Vlažnost: 78%
Pritisak: 1000 hPa
Oblaci: Few Clouds
Vidljivost: 10 km
Cloud details: Few Clouds 914 m
2022/09/27 12:00 LDOS 271200Z 19009KT 9999 FEW030 19/15 Q1000